createdAt,value
2018-08-30T00:00:20.922Z,20.40
2018-08-30T00:02:23.167Z,20.50
2018-08-30T00:04:25.321Z,20.70
2018-08-30T00:06:27.460Z,20.50
2018-08-30T00:08:29.629Z,20.50
2018-08-30T00:10:31.861Z,20.50
2018-08-30T00:12:34.069Z,20.50
2018-08-30T00:14:36.251Z,20.40
2018-08-30T00:16:38.483Z,20.10
2018-08-30T00:18:40.698Z,20.20
2018-08-30T00:20:42.837Z,20.30
2018-08-30T00:22:44.969Z,20.40
2018-08-30T00:24:53.821Z,20.40
2018-08-30T00:26:55.951Z,20.30
2018-08-30T00:28:58.081Z,20.30
2018-08-30T00:31:00.510Z,20.30
2018-08-30T00:33:02.827Z,20.30
2018-08-30T00:35:05.406Z,20.40
2018-08-30T00:37:08.118Z,20.40
2018-08-30T00:39:10.350Z,20.20
2018-08-30T00:41:12.553Z,19.90
2018-08-30T00:43:15.103Z,19.90
2018-08-30T00:45:17.250Z,20.10
2018-08-30T00:47:19.370Z,20.00
2018-08-30T00:49:21.647Z,19.70
2018-08-30T00:51:23.843Z,19.90
2018-08-30T00:53:26.111Z,20.00
2018-08-30T00:55:28.304Z,20.10
2018-08-30T00:57:30.454Z,19.90
2018-08-30T00:59:32.619Z,19.90
2018-08-30T01:01:35.099Z,20.00
2018-08-30T01:03:37.232Z,19.90
2018-08-30T01:05:39.641Z,19.90
2018-08-30T01:07:41.788Z,19.90
2018-08-30T01:09:43.942Z,19.80
2018-08-30T01:11:46.703Z,19.80
2018-08-30T01:13:48.860Z,19.80
2018-08-30T01:15:51.029Z,19.70
2018-08-30T01:17:53.518Z,19.70
2018-08-30T01:19:55.654Z,19.70
2018-08-30T01:21:58.536Z,19.80
2018-08-30T01:24:00.698Z,19.80
2018-08-30T01:26:02.872Z,19.80
2018-08-30T01:28:05.066Z,19.80
2018-08-30T01:30:07.551Z,19.70
2018-08-30T01:32:09.754Z,19.80
2018-08-30T01:34:12.906Z,19.80
2018-08-30T01:36:15.043Z,19.80
2018-08-30T01:38:17.189Z,19.70
2018-08-30T01:40:19.587Z,19.60
2018-08-30T01:42:21.793Z,19.60
2018-08-30T01:44:23.962Z,19.70
2018-08-30T01:46:29.158Z,19.70
2018-08-30T01:48:31.360Z,19.70
2018-08-30T01:50:33.527Z,19.80
2018-08-30T01:52:35.675Z,19.70
2018-08-30T01:54:38.158Z,19.70
2018-08-30T01:56:40.805Z,19.60
2018-08-30T01:58:42.910Z,19.60
2018-08-30T02:00:45.080Z,19.50
2018-08-30T02:02:47.326Z,19.50
2018-08-30T02:04:49.500Z,19.60
2018-08-30T02:06:52.179Z,19.40
2018-08-30T02:08:54.322Z,19.50
2018-08-30T02:10:56.520Z,19.50
2018-08-30T02:12:59.098Z,19.40
2018-08-30T02:15:01.287Z,19.40
2018-08-30T02:17:03.967Z,19.60
2018-08-30T02:19:06.132Z,19.60
2018-08-30T02:21:08.298Z,19.50
2018-08-30T02:23:10.499Z,19.60
2018-08-30T02:25:12.683Z,19.60
2018-08-30T02:27:14.857Z,19.50
2018-08-30T02:29:17.034Z,19.50
2018-08-30T02:31:19.442Z,19.30
2018-08-30T02:33:21.583Z,19.30
2018-08-30T02:35:23.748Z,19.40
2018-08-30T02:37:26.031Z,19.20
2018-08-30T02:39:28.194Z,19.00
2018-08-30T02:41:30.513Z,19.10
2018-08-30T02:43:32.639Z,19.20
2018-08-30T02:45:34.862Z,19.30
2018-08-30T02:47:36.982Z,19.30
2018-08-30T02:49:39.145Z,19.30
2018-08-30T02:51:41.654Z,19.20
2018-08-30T02:53:43.850Z,19.30
2018-08-30T02:55:45.986Z,19.20
2018-08-30T02:57:48.550Z,19.30
2018-08-30T02:59:50.666Z,19.30
2018-08-30T03:01:52.818Z,19.10
2018-08-30T03:03:54.963Z,18.90
2018-08-30T03:05:57.105Z,18.80
2018-08-30T03:07:59.601Z,18.90
2018-08-30T03:10:02.039Z,18.90
2018-08-30T03:12:04.698Z,19.00
2018-08-30T03:14:06.809Z,18.90
2018-08-30T03:16:09.022Z,19.00
2018-08-30T03:18:11.239Z,18.70
2018-08-30T03:20:14.082Z,18.70
2018-08-30T03:22:16.250Z,18.70
2018-08-30T03:24:18.379Z,18.70
2018-08-30T03:26:20.520Z,18.70
2018-08-30T03:28:22.676Z,18.70
2018-08-30T03:30:25.045Z,18.70
2018-08-30T03:32:27.003Z,18.70
2018-08-30T03:34:29.556Z,18.70
2018-08-30T03:36:31.969Z,18.70
2018-08-30T03:38:34.123Z,18.60
2018-08-30T03:40:36.425Z,18.60
2018-08-30T03:42:38.553Z,18.50
2018-08-30T03:44:40.702Z,18.60
2018-08-30T03:46:42.963Z,18.60
2018-08-30T03:48:45.087Z,18.50
2018-08-30T03:50:47.259Z,18.50
2018-08-30T03:52:49.411Z,18.50
2018-08-30T03:54:51.534Z,18.40
2018-08-30T03:56:53.651Z,18.50
2018-08-30T03:58:55.818Z,18.50
2018-08-30T04:00:57.951Z,18.50
2018-08-30T04:03:00.170Z,18.50
2018-08-30T04:05:02.589Z,18.50
2018-08-30T04:07:04.920Z,18.60
2018-08-30T04:09:07.710Z,18.50
2018-08-30T04:11:09.952Z,18.50
2018-08-30T04:13:12.159Z,18.40
2018-08-30T04:15:14.304Z,18.50
2018-08-30T04:17:16.478Z,18.50
2018-08-30T04:19:18.634Z,18.50
2018-08-30T04:21:20.773Z,18.60
2018-08-30T04:23:22.967Z,18.50
2018-08-30T04:25:25.121Z,18.50
2018-08-30T04:27:27.235Z,18.40
2018-08-30T04:29:29.773Z,18.40
2018-08-30T04:31:31.939Z,18.30
2018-08-30T04:33:34.094Z,18.40
2018-08-30T04:35:36.319Z,18.40
2018-08-30T04:37:38.462Z,18.50
2018-08-30T04:39:40.635Z,18.50
2018-08-30T04:41:42.765Z,18.40
2018-08-30T04:43:44.914Z,18.30
2018-08-30T04:45:47.078Z,18.40
2018-08-30T04:47:49.573Z,18.50
2018-08-30T04:49:52.789Z,18.50
2018-08-30T04:51:54.933Z,18.50
2018-08-30T04:53:57.134Z,18.40
2018-08-30T04:56:00.094Z,18.20
2018-08-30T04:58:02.242Z,18.30
2018-08-30T05:00:04.440Z,18.40
2018-08-30T05:02:06.818Z,18.40
2018-08-30T05:04:08.958Z,18.30
2018-08-30T05:06:11.136Z,18.20
2018-08-30T05:08:13.333Z,18.20
2018-08-30T05:10:15.603Z,18.30
2018-08-30T05:12:17.782Z,18.10
2018-08-30T05:14:20.018Z,18.20
2018-08-30T05:16:22.231Z,18.20
2018-08-30T05:18:24.359Z,17.90
2018-08-30T05:20:26.549Z,18.10
2018-08-30T05:22:28.767Z,18.00
2018-08-30T05:24:30.937Z,17.90
2018-08-30T05:26:33.077Z,17.90
2018-08-30T05:28:35.254Z,18.00
2018-08-30T05:30:37.415Z,18.20
2018-08-30T05:32:39.574Z,18.20
2018-08-30T05:34:41.724Z,18.10
2018-08-30T05:36:43.932Z,18.20
2018-08-30T05:38:46.415Z,18.20
2018-08-30T05:40:48.627Z,18.20
2018-08-30T05:42:50.790Z,18.10
2018-08-30T05:44:53.267Z,18.10
2018-08-30T05:46:55.454Z,18.20
2018-08-30T05:48:57.588Z,18.30
2018-08-30T05:50:59.741Z,18.30
2018-08-30T05:53:01.907Z,18.20
2018-08-30T05:55:04.051Z,18.20
2018-08-30T05:57:06.927Z,18.20
2018-08-30T05:59:09.066Z,18.10
2018-08-30T06:01:11.315Z,18.10
2018-08-30T06:03:13.443Z,18.10
2018-08-30T06:05:15.590Z,18.20
2018-08-30T06:07:17.953Z,18.30
2018-08-30T06:09:20.039Z,18.30
2018-08-30T06:11:22.187Z,18.40
2018-08-30T06:13:24.322Z,18.50
2018-08-30T06:15:26.442Z,18.40
2018-08-30T06:17:28.607Z,18.50
2018-08-30T06:19:30.783Z,18.40
2018-08-30T06:21:32.918Z,18.50
2018-08-30T06:23:35.323Z,18.50
2018-08-30T06:25:37.858Z,18.50
2018-08-30T06:27:39.999Z,18.50
2018-08-30T06:29:42.179Z,18.60
2018-08-30T06:31:44.309Z,18.60
2018-08-30T06:33:46.518Z,18.60
2018-08-30T06:35:48.672Z,18.60
2018-08-30T06:37:51.183Z,18.60
2018-08-30T06:39:53.539Z,18.50
2018-08-30T06:41:55.800Z,18.40
2018-08-30T06:43:57.934Z,18.40
2018-08-30T06:46:00.163Z,18.00
2018-08-30T06:48:02.292Z,18.00
2018-08-30T06:50:05.034Z,18.20
2018-08-30T06:52:07.166Z,18.00
2018-08-30T06:54:09.278Z,18.10
2018-08-30T06:56:11.449Z,18.20
2018-08-30T06:58:13.571Z,18.10
2018-08-30T07:00:15.723Z,18.30
2018-08-30T07:02:17.890Z,18.30
2018-08-30T07:04:20.070Z,18.30
2018-08-30T07:06:22.147Z,18.20
2018-08-30T07:08:24.549Z,18.10
2018-08-30T07:10:26.699Z,17.70
2018-08-30T07:12:28.854Z,17.60
2018-08-30T07:14:30.998Z,17.50
2018-08-30T07:16:33.629Z,17.60
2018-08-30T07:18:35.858Z,17.50
2018-08-30T07:20:38.019Z,17.40
2018-08-30T07:22:40.160Z,17.30
2018-08-30T07:24:42.299Z,17.30
2018-08-30T07:26:44.454Z,17.50
2018-08-30T07:28:46.579Z,17.80
2018-08-30T07:30:48.731Z,17.70
2018-08-30T07:32:50.873Z,17.70
2018-08-30T07:34:53.103Z,17.80
2018-08-30T07:36:55.106Z,18.00
2018-08-30T07:38:57.238Z,18.20
2018-08-30T07:40:59.387Z,18.10
2018-08-30T07:43:01.629Z,18.20
2018-08-30T07:45:03.811Z,18.20
2018-08-30T07:47:06.001Z,18.30
2018-08-30T07:49:08.881Z,18.30
2018-08-30T07:51:11.023Z,18.30
2018-08-30T07:53:13.163Z,18.30
2018-08-30T07:55:15.323Z,18.30
2018-08-30T07:57:17.478Z,18.30
2018-08-30T07:59:19.623Z,18.20
2018-08-30T08:01:21.773Z,18.20
2018-08-30T08:03:23.888Z,18.20
2018-08-30T08:05:26.014Z,18.30
2018-08-30T08:07:28.331Z,18.40
2018-08-30T08:09:30.490Z,18.40
2018-08-30T08:11:32.588Z,18.40
2018-08-30T08:13:34.779Z,18.50
2018-08-30T08:15:36.926Z,18.40
2018-08-30T08:17:39.079Z,18.30
2018-08-30T08:19:41.206Z,18.40
2018-08-30T08:21:43.355Z,18.40
2018-08-30T08:23:45.502Z,18.50
2018-08-30T08:25:47.638Z,18.30
2018-08-30T08:27:49.813Z,18.50
2018-08-30T08:29:51.978Z,18.30
2018-08-30T08:31:54.113Z,18.30
2018-08-30T08:33:56.542Z,18.50
2018-08-30T08:35:58.655Z,18.50
2018-08-30T08:38:00.802Z,18.50
2018-08-30T08:40:03.088Z,18.50
2018-08-30T08:42:05.454Z,18.60
2018-08-30T08:44:07.570Z,18.60
2018-08-30T08:46:09.720Z,18.60
2018-08-30T08:48:11.857Z,18.60
2018-08-30T08:50:14.026Z,18.60
2018-08-30T08:52:16.519Z,18.50
2018-08-30T08:54:18.630Z,18.30
2018-08-30T08:56:20.770Z,18.30
2018-08-30T08:58:22.946Z,18.40
2018-08-30T09:00:25.174Z,18.50
2018-08-30T09:02:27.314Z,18.50
2018-08-30T09:04:29.698Z,18.40
2018-08-30T09:06:31.808Z,18.40
2018-08-30T09:08:33.930Z,18.40
2018-08-30T09:10:36.094Z,18.50
2018-08-30T09:12:38.227Z,18.50
2018-08-30T09:14:40.360Z,18.50
2018-08-30T09:16:42.895Z,18.60
2018-08-30T09:18:45.077Z,18.60
2018-08-30T09:20:47.262Z,18.60
2018-08-30T09:22:49.441Z,18.50
2018-08-30T09:24:51.579Z,18.60
2018-08-30T09:26:53.770Z,18.40
2018-08-30T09:28:55.905Z,18.60
2018-08-30T09:30:58.341Z,18.70
2018-08-30T09:33:00.437Z,19.00
2018-08-30T09:35:02.586Z,19.20
2018-08-30T09:37:05.027Z,19.30
2018-08-30T09:39:07.682Z,19.20
2018-08-30T09:41:09.807Z,19.30
2018-08-30T09:43:12.290Z,19.20
2018-08-30T09:45:14.470Z,19.30
2018-08-30T09:47:16.635Z,19.20
2018-08-30T09:49:18.785Z,19.20
2018-08-30T09:51:20.922Z,19.20
2018-08-30T09:53:23.086Z,19.30
2018-08-30T09:55:25.367Z,19.30
2018-08-30T09:57:27.865Z,19.20
2018-08-30T09:59:29.924Z,19.20
2018-08-30T10:01:37.879Z,19.20
2018-08-30T10:03:40.147Z,19.30
2018-08-30T10:05:42.370Z,19.30
2018-08-30T10:07:45.469Z,19.20
2018-08-30T10:09:47.610Z,19.10
2018-08-30T10:11:49.738Z,19.00
2018-08-30T10:13:51.894Z,19.10
2018-08-30T10:15:54.329Z,19.20
2018-08-30T10:17:56.483Z,19.20
2018-08-30T10:19:58.610Z,19.20
2018-08-30T10:22:00.817Z,19.30
2018-08-30T10:24:02.973Z,19.20
2018-08-30T10:26:05.695Z,19.30
2018-08-30T10:28:07.891Z,19.30
2018-08-30T10:30:10.023Z,19.30
2018-08-30T10:32:12.179Z,19.20
2018-08-30T10:34:14.303Z,19.10
2018-08-30T10:36:16.463Z,19.00
2018-08-30T10:38:18.652Z,18.90
2018-08-30T10:40:20.971Z,18.90
2018-08-30T10:42:23.081Z,18.80
2018-08-30T10:44:25.178Z,18.80
2018-08-30T10:46:27.326Z,19.00
2018-08-30T10:48:29.495Z,19.10
2018-08-30T10:50:31.639Z,19.00
2018-08-30T10:52:33.791Z,19.10
2018-08-30T10:54:35.982Z,19.10
2018-08-30T10:56:38.153Z,19.20
2018-08-30T10:58:40.343Z,19.20
2018-08-30T11:00:42.498Z,19.00
2018-08-30T11:02:44.754Z,18.90
2018-08-30T11:04:47.140Z,19.00
2018-08-30T11:06:49.348Z,19.00
2018-08-30T11:08:51.500Z,18.90
2018-08-30T11:10:53.633Z,18.70
2018-08-30T11:12:55.844Z,18.60
2018-08-30T11:14:57.957Z,18.60
2018-08-30T11:17:00.095Z,18.60
2018-08-30T11:19:02.282Z,18.50
2018-08-30T11:21:04.425Z,18.50
2018-08-30T11:23:06.634Z,18.50
2018-08-30T11:25:08.826Z,18.50
2018-08-30T11:27:10.996Z,18.40
2018-08-30T11:29:13.132Z,18.20
2018-08-30T11:31:15.285Z,18.30
2018-08-30T11:33:17.419Z,18.30
2018-08-30T11:35:19.567Z,18.40
2018-08-30T11:37:21.695Z,18.30
2018-08-30T11:39:23.826Z,18.30
2018-08-30T11:41:26.018Z,18.20
2018-08-30T11:43:28.220Z,18.20
2018-08-30T11:45:30.263Z,18.30
2018-08-30T11:47:32.411Z,18.20
2018-08-30T11:49:34.542Z,18.10
2018-08-30T11:51:36.909Z,18.20
2018-08-30T11:53:39.226Z,18.10
2018-08-30T11:55:41.370Z,18.10
2018-08-30T11:57:43.831Z,18.00
2018-08-30T11:59:45.958Z,18.10
2018-08-30T12:01:48.122Z,18.10
2018-08-30T12:03:50.626Z,18.10
2018-08-30T12:05:52.970Z,18.20
2018-08-30T12:07:56.424Z,18.10
2018-08-30T12:09:58.520Z,18.00
2018-08-30T12:12:00.669Z,18.00
2018-08-30T12:14:03.178Z,18.00
2018-08-30T12:16:05.307Z,18.00
2018-08-30T12:18:07.470Z,18.10
2018-08-30T12:20:09.718Z,17.90
2018-08-30T12:22:11.858Z,17.90
2018-08-30T12:24:13.954Z,18.00
2018-08-30T12:26:16.375Z,18.00
2018-08-30T12:28:18.611Z,18.00
2018-08-30T12:30:20.748Z,17.90
2018-08-30T12:32:22.959Z,18.00
2018-08-30T12:34:25.078Z,18.10
2018-08-30T12:36:27.222Z,18.10
2018-08-30T12:38:29.424Z,18.00
2018-08-30T12:40:31.637Z,18.00
2018-08-30T12:42:33.809Z,18.10
2018-08-30T12:44:35.907Z,18.00
2018-08-30T12:46:38.091Z,18.10
2018-08-30T12:48:40.198Z,18.00
2018-08-30T12:50:42.533Z,18.00
2018-08-30T12:52:44.648Z,17.90
2018-08-30T12:54:46.651Z,18.00
2018-08-30T12:56:48.910Z,17.90
2018-08-30T12:59:54.421Z,17.90
2018-08-30T13:01:56.588Z,17.80
2018-08-30T13:03:58.792Z,17.80
2018-08-30T13:06:01.068Z,17.70
2018-08-30T13:08:03.206Z,17.70
2018-08-30T13:10:05.582Z,17.70
2018-08-30T13:12:08.197Z,17.80
2018-08-30T13:14:10.038Z,17.80
2018-08-30T13:16:12.023Z,17.80
2018-08-30T13:18:14.458Z,17.80
2018-08-30T13:20:16.746Z,17.70
2018-08-30T13:22:19.825Z,17.80
2018-08-30T13:24:21.953Z,17.80
2018-08-30T13:26:23.930Z,17.80
2018-08-30T13:28:26.090Z,17.90
2018-08-30T13:30:28.361Z,17.80
2018-08-30T13:32:30.491Z,17.80
2018-08-30T13:34:33.111Z,17.90
2018-08-30T13:36:34.983Z,17.80
2018-08-30T13:38:37.357Z,17.70
2018-08-30T13:40:39.479Z,17.60
2018-08-30T13:42:41.639Z,17.60
2018-08-30T13:44:43.751Z,17.40
2018-08-30T13:46:46.173Z,17.50
2018-08-30T13:48:48.105Z,17.40
2018-08-30T13:50:50.306Z,17.50
2018-08-30T13:52:52.514Z,17.40
2018-08-30T13:54:55.058Z,17.40
2018-08-30T13:56:57.283Z,17.40
2018-08-30T13:58:59.521Z,17.50
2018-08-30T14:01:01.684Z,17.50
2018-08-30T14:03:03.424Z,17.50
2018-08-30T14:05:06.029Z,17.40
2018-08-30T14:09:17.103Z,17.50
2018-08-30T14:11:19.279Z,17.60
2018-08-30T14:13:21.504Z,17.70
2018-08-30T14:15:23.889Z,17.60
2018-08-30T14:17:25.410Z,17.50
2018-08-30T14:19:27.551Z,17.50
2018-08-30T14:21:29.686Z,17.60
2018-08-30T14:23:31.878Z,17.50
2018-08-30T14:25:34.006Z,17.60
2018-08-30T14:27:36.138Z,17.70
2018-08-30T14:29:38.256Z,17.80
2018-08-30T14:31:40.722Z,17.80
2018-08-30T14:33:42.888Z,17.80
2018-08-30T14:35:45.049Z,17.80
2018-08-30T14:37:47.174Z,17.80
2018-08-30T14:39:49.331Z,17.90
2018-08-30T14:41:51.536Z,17.90
2018-08-30T14:43:53.618Z,18.00
2018-08-30T14:45:55.933Z,18.10
2018-08-30T14:47:58.147Z,18.00
2018-08-30T14:50:00.226Z,18.00
2018-08-30T14:52:02.434Z,18.00
2018-08-30T14:54:04.753Z,18.00
2018-08-30T14:56:06.849Z,17.90
2018-08-30T14:58:09.278Z,18.00
2018-08-30T15:00:11.441Z,17.90
2018-08-30T15:02:13.563Z,17.90
2018-08-30T15:04:15.650Z,18.00
2018-08-30T15:06:18.114Z,18.00
2018-08-30T15:08:20.235Z,18.10
2018-08-30T15:10:22.363Z,18.10
2018-08-30T15:12:25.270Z,18.10
2018-08-30T15:14:27.382Z,18.00
2018-08-30T15:16:29.513Z,18.10
2018-08-30T15:18:31.686Z,18.10
2018-08-30T15:20:34.394Z,18.10
2018-08-30T15:22:36.703Z,18.10
2018-08-30T15:24:38.714Z,18.20
2018-08-30T15:26:41.495Z,18.30
2018-08-30T15:28:50.151Z,18.40
2018-08-30T15:30:52.306Z,18.50
2018-08-30T15:32:54.455Z,18.40
2018-08-30T15:34:56.562Z,18.40
2018-08-30T15:36:58.702Z,18.30
2018-08-30T15:39:00.902Z,18.30
2018-08-30T15:41:03.061Z,18.50
2018-08-30T15:43:05.549Z,18.50
2018-08-30T15:45:07.679Z,18.50
2018-08-30T15:47:09.854Z,18.50
2018-08-30T15:49:11.982Z,18.50
2018-08-30T15:51:14.116Z,18.60
2018-08-30T15:53:16.486Z,18.60
2018-08-30T15:55:18.487Z,18.70
2018-08-30T15:57:20.773Z,18.60
2018-08-30T15:59:22.890Z,18.80
2018-08-30T16:01:24.913Z,18.70
2018-08-30T16:03:27.165Z,18.60
2018-08-30T16:05:29.410Z,18.70
2018-08-30T16:07:31.489Z,18.80
2018-08-30T16:09:33.671Z,18.70
2018-08-30T16:11:36.062Z,18.70
2018-08-30T16:13:38.186Z,18.80
2018-08-30T16:15:40.574Z,18.70
2018-08-30T16:17:43.142Z,18.80
2018-08-30T16:19:46.270Z,18.80
2018-08-30T16:21:48.392Z,18.80
2018-08-30T16:23:50.513Z,18.90
2018-08-30T16:25:52.633Z,19.00
2018-08-30T16:27:54.738Z,18.90
2018-08-30T16:29:57.273Z,19.00
2018-08-30T16:31:59.434Z,19.00
2018-08-30T16:34:01.573Z,19.00
2018-08-30T16:36:03.709Z,19.10
2018-08-30T16:38:05.836Z,19.20
2018-08-30T16:40:07.982Z,19.20
2018-08-30T16:42:10.129Z,19.20
2018-08-30T16:44:12.313Z,19.30
2018-08-30T16:46:14.420Z,19.30
2018-08-30T16:48:16.564Z,19.10
2018-08-30T16:50:18.799Z,18.90
2018-08-30T16:52:20.845Z,18.90
2018-08-30T16:54:22.961Z,18.80
2018-08-30T16:56:25.474Z,19.00
2018-08-30T16:58:27.506Z,18.80
2018-08-30T17:00:29.626Z,18.70
2018-08-30T17:02:32.319Z,18.60
2018-08-30T17:04:34.432Z,18.60
2018-08-30T17:06:36.638Z,18.60
2018-08-30T17:08:38.673Z,18.50
2018-08-30T17:10:40.799Z,18.30
2018-08-30T17:12:42.961Z,18.30
2018-08-30T17:14:45.100Z,18.20
2018-08-30T17:16:47.202Z,18.20
2018-08-30T17:18:51.137Z,18.20
2018-08-30T17:20:54.443Z,18.00
2018-08-30T17:22:56.587Z,18.00
2018-08-30T17:24:58.693Z,18.00
2018-08-30T17:27:00.820Z,17.90
2018-08-30T17:29:03.603Z,17.90
2018-08-30T17:31:05.862Z,17.90
2018-08-30T17:33:08.140Z,17.90
2018-08-30T17:35:10.268Z,17.80
2018-08-30T17:37:12.589Z,17.70
2018-08-30T17:39:14.581Z,17.60
2018-08-30T17:41:17.063Z,17.50
2018-08-30T17:43:19.205Z,17.50
2018-08-30T17:45:21.444Z,17.40
2018-08-30T17:47:23.606Z,17.40
2018-08-30T17:49:25.736Z,17.50
2018-08-30T17:51:27.901Z,17.50
2018-08-30T17:53:30.051Z,17.50
2018-08-30T17:55:32.307Z,17.40
2018-08-30T17:57:34.537Z,17.20
2018-08-30T17:59:36.655Z,17.20
2018-08-30T18:01:39.305Z,17.20
2018-08-30T18:03:41.624Z,17.10
2018-08-30T18:05:43.720Z,17.20
2018-08-30T18:07:45.842Z,17.10
2018-08-30T18:09:48.305Z,17.20
2018-08-30T18:11:50.840Z,17.10
2018-08-30T18:16:01.941Z,17.20
2018-08-30T18:18:04.279Z,17.00
2018-08-30T18:20:06.413Z,16.80
2018-08-30T18:22:08.571Z,16.90
2018-08-30T18:24:10.739Z,16.80
2018-08-30T18:26:12.921Z,16.90
2018-08-30T18:28:15.054Z,16.90
2018-08-30T18:30:17.386Z,16.80
2018-08-30T18:32:19.593Z,16.90
2018-08-30T18:34:21.746Z,16.70
2018-08-30T18:36:24.017Z,16.70
2018-08-30T18:38:26.178Z,16.50
2018-08-30T18:40:28.307Z,16.50
2018-08-30T18:42:30.494Z,16.50
2018-08-30T18:44:39.425Z,16.60
2018-08-30T18:46:41.546Z,16.50
2018-08-30T18:48:44.020Z,16.30
2018-08-30T18:50:46.144Z,16.20
2018-08-30T18:52:48.283Z,16.20
2018-08-30T18:54:50.417Z,16.10
2018-08-30T18:56:52.570Z,16.20
2018-08-30T18:58:55.014Z,16.30
2018-08-30T19:00:57.227Z,16.20
2018-08-30T19:02:59.390Z,16.20
2018-08-30T19:05:01.557Z,16.30
2018-08-30T19:07:04.426Z,16.40
2018-08-30T19:09:07.971Z,16.30
2018-08-30T19:11:10.122Z,16.20
2018-08-30T19:13:12.378Z,16.20
2018-08-30T19:15:20.219Z,16.20
2018-08-30T19:17:27.987Z,16.10
2018-08-30T19:19:33.493Z,16.10
2018-08-30T19:21:35.634Z,16.00
2018-08-30T19:23:37.793Z,16.10
2018-08-30T19:25:39.935Z,16.10
2018-08-30T19:27:43.282Z,16.20
2018-08-30T19:29:51.078Z,16.10
2018-08-30T19:31:53.239Z,16.10
2018-08-30T19:33:55.504Z,16.00
2018-08-30T19:36:03.490Z,16.10
2018-08-30T19:38:05.618Z,16.10
2018-08-30T19:40:12.417Z,16.20
2018-08-30T19:42:14.860Z,16.10
2018-08-30T19:44:17.011Z,16.10
2018-08-30T19:46:25.698Z,15.90
2018-08-30T19:48:27.962Z,15.80
2018-08-30T19:50:30.473Z,15.70
2018-08-30T19:52:32.753Z,15.90
2018-08-30T19:54:34.838Z,15.70
2018-08-30T19:56:36.946Z,15.60
2018-08-30T19:58:39.377Z,15.70
2018-08-30T20:00:41.568Z,15.60
2018-08-30T20:04:52.678Z,15.50
2018-08-30T20:06:54.872Z,15.50
2018-08-30T20:08:57.470Z,15.60
2018-08-30T20:10:59.664Z,15.60
2018-08-30T20:13:01.818Z,15.70
2018-08-30T20:15:04.047Z,15.50
2018-08-30T20:17:06.216Z,15.60
2018-08-30T20:19:08.420Z,15.60
2018-08-30T20:21:10.575Z,15.50
2018-08-30T20:23:12.890Z,15.60
2018-08-30T20:25:15.281Z,15.60
2018-08-30T20:27:17.436Z,15.60
2018-08-30T20:29:19.562Z,15.40
2018-08-30T20:31:21.937Z,15.40
2018-08-30T20:33:24.110Z,15.50
2018-08-30T20:35:26.278Z,15.60
2018-08-30T20:37:28.524Z,15.60
2018-08-30T20:39:30.684Z,15.50
2018-08-30T20:41:32.831Z,15.50
2018-08-30T20:43:35.534Z,15.50
2018-08-30T20:45:37.720Z,15.50
2018-08-30T20:47:46.482Z,15.30
2018-08-30T20:49:48.905Z,15.20
2018-08-30T20:51:51.482Z,15.00
2018-08-30T20:53:53.744Z,15.10
2018-08-30T20:55:55.897Z,15.00
2018-08-30T20:57:58.102Z,15.00
2018-08-30T21:00:00.442Z,15.00
2018-08-30T21:02:02.797Z,14.90
2018-08-30T21:04:04.995Z,15.00
2018-08-30T21:06:07.418Z,14.90
2018-08-30T21:08:09.595Z,14.90
2018-08-30T21:10:11.761Z,15.00
2018-08-30T21:12:13.930Z,14.90
2018-08-30T21:14:16.187Z,14.80
2018-08-30T21:16:18.426Z,14.80
2018-08-30T21:18:20.589Z,14.90
2018-08-30T21:20:22.829Z,14.70
2018-08-30T21:22:25.128Z,14.80
2018-08-30T21:24:27.278Z,14.80
2018-08-30T21:26:29.411Z,14.70
2018-08-30T21:28:31.578Z,14.90
2018-08-30T21:30:33.770Z,14.80
2018-08-30T21:32:35.955Z,14.80
2018-08-30T21:34:38.513Z,14.80
2018-08-30T21:36:40.644Z,14.90
2018-08-30T21:38:43.010Z,14.90
2018-08-30T21:40:45.171Z,14.70
2018-08-30T21:42:47.355Z,14.60
2018-08-30T21:44:49.852Z,14.80
2018-08-30T21:46:52.034Z,14.80
2018-08-30T21:48:54.286Z,14.70
2018-08-30T21:53:05.429Z,14.60
2018-08-30T21:55:07.778Z,14.40
2018-08-30T21:57:09.946Z,14.60
2018-08-30T21:59:12.162Z,14.60
2018-08-30T22:01:14.340Z,14.50
2018-08-30T22:03:16.998Z,14.50
2018-08-30T22:05:19.183Z,14.60
2018-08-30T22:07:21.379Z,14.60
2018-08-30T22:09:31.237Z,14.70
2018-08-30T22:11:33.544Z,14.60
2018-08-30T22:13:35.706Z,14.60
2018-08-30T22:15:37.973Z,14.60
2018-08-30T22:17:43.868Z,14.80
2018-08-30T22:19:45.999Z,14.70
2018-08-30T22:21:48.182Z,14.70
2018-08-30T22:23:58.495Z,14.50
2018-08-30T22:26:00.848Z,14.50
2018-08-30T22:28:03.099Z,14.50
2018-08-30T22:30:07.150Z,14.50
2018-08-30T22:32:09.323Z,14.30
2018-08-30T22:34:11.454Z,14.40
2018-08-30T22:36:13.834Z,14.40
2018-08-30T22:38:16.029Z,14.20
2018-08-30T22:40:18.240Z,14.10
2018-08-30T22:42:20.364Z,14.30
2018-08-30T22:44:22.526Z,14.30
2018-08-30T22:46:24.728Z,14.10
2018-08-30T22:48:26.887Z,14.10
2018-08-30T22:50:29.324Z,14.00
2018-08-30T22:52:31.551Z,14.00
2018-08-30T22:54:33.697Z,13.90
2018-08-30T22:56:35.846Z,13.90
2018-08-30T22:58:38.100Z,14.00
2018-08-30T23:00:40.348Z,14.10
2018-08-30T23:02:42.539Z,14.00
2018-08-30T23:04:44.713Z,14.10
2018-08-30T23:06:47.147Z,14.00
2018-08-30T23:08:49.270Z,14.00
2018-08-30T23:10:52.352Z,13.90
2018-08-30T23:12:54.570Z,13.90
2018-08-30T23:14:56.720Z,13.80
2018-08-30T23:16:59.171Z,13.80
2018-08-30T23:19:01.395Z,13.80
2018-08-30T23:21:03.634Z,13.70
2018-08-30T23:23:05.805Z,13.50
2018-08-30T23:25:08.018Z,13.60
2018-08-30T23:27:10.178Z,13.60
2018-08-30T23:29:12.754Z,13.80
2018-08-30T23:31:16.363Z,13.50
2018-08-30T23:33:18.653Z,13.60
2018-08-30T23:35:21.207Z,13.50
2018-08-30T23:37:23.410Z,13.40
2018-08-30T23:39:25.594Z,13.40
2018-08-30T23:41:27.726Z,13.50
2018-08-30T23:43:29.906Z,13.60
2018-08-30T23:45:32.038Z,13.70
2018-08-30T23:47:34.238Z,13.60
2018-08-30T23:49:36.410Z,13.60
2018-08-30T23:51:38.588Z,13.60
2018-08-30T23:53:40.792Z,13.60
2018-08-30T23:55:42.974Z,13.50
2018-08-30T23:57:56.830Z,13.60
